sensor_id;sensor_type;location;lat;lon;timestamp;pressure;altitude;pressure_sealevel;temperature;humidity
19526;BME280;9907;42.676;26.348;2024-03-02T00:02:14;98593.31;;;7.23;100.00
19526;BME280;9907;42.676;26.348;2024-03-02T00:04:40;98595.19;;;7.32;100.00
19526;BME280;9907;42.676;26.348;2024-03-02T00:07:06;98594.22;;;7.33;100.00
19526;BME280;9907;42.676;26.348;2024-03-02T00:09:32;98601.22;;;7.34;100.00
19526;BME280;9907;42.676;26.348;2024-03-02T00:11:59;98609.06;;;7.35;100.00
19526;BME280;9907;42.676;26.348;2024-03-02T00:14:25;98605.00;;;7.31;100.00
19526;BME280;9907;42.676;26.348;2024-03-02T00:16:51;98607.13;;;7.38;100.00
19526;BME280;9907;42.676;26.348;2024-03-02T00:19:18;98607.00;;;7.39;100.00
19526;BME280;9907;42.676;26.348;2024-03-02T00:21:45;98607.34;;;7.46;100.00
19526;BME280;9907;42.676;26.348;2024-03-02T00:24:23;98602.22;;;7.54;100.00
19526;BME280;9907;42.676;26.348;2024-03-02T00:26:56;98595.22;;;7.53;100.00
19526;BME280;9907;42.676;26.348;2024-03-02T00:29:22;98590.75;;;7.53;100.00
19526;BME280;9907;42.676;26.348;2024-03-02T00:31:48;98580.34;;;7.50;100.00
19526;BME280;9907;42.676;26.348;2024-03-02T00:34:14;98585.03;;;7.37;100.00
19526;BME280;9907;42.676;26.348;2024-03-02T00:36:41;98584.97;;;7.27;100.00
19526;BME280;9907;42.676;26.348;2024-03-02T00:39:07;98587.03;;;7.24;100.00
19526;BME280;9907;42.676;26.348;2024-03-02T00:41:33;98579.25;;;7.32;100.00
19526;BME280;9907;42.676;26.348;2024-03-02T00:44:03;98575.16;;;7.28;100.00
19526;BME280;9907;42.676;26.348;2024-03-02T00:46:31;98566.75;;;7.23;100.00
19526;BME280;9907;42.676;26.348;2024-03-02T00:48:59;98576.53;;;7.22;100.00
19526;BME280;9907;42.676;26.348;2024-03-02T00:51:31;98579.66;;;7.27;100.00
19526;BME280;9907;42.676;26.348;2024-03-02T00:54:03;98579.06;;;7.24;100.00
19526;BME280;9907;42.676;26.348;2024-03-02T00:56:30;98576.41;;;7.24;100.00
19526;BME280;9907;42.676;26.348;2024-03-02T00:58:56;98568.03;;;7.28;100.00
19526;BME280;9907;42.676;26.348;2024-03-02T01:01:22;98557.56;;;7.27;100.00
19526;BME280;9907;42.676;26.348;2024-03-02T01:03:48;98550.28;;;7.29;100.00
19526;BME280;9907;42.676;26.348;2024-03-02T01:06:14;98542.25;;;7.19;100.00
19526;BME280;9907;42.676;26.348;2024-03-02T01:08:40;98537.31;;;7.15;100.00
19526;BME280;9907;42.676;26.348;2024-03-02T01:11:06;98531.25;;;7.24;100.00
19526;BME280;9907;42.676;26.348;2024-03-02T01:13:32;98531.25;;;7.24;100.00
19526;BME280;9907;42.676;26.348;2024-03-02T01:15:58;98533.19;;;7.22;100.00
19526;BME280;9907;42.676;26.348;2024-03-02T01:18:25;98533.19;;;7.22;100.00
19526;BME280;9907;42.676;26.348;2024-03-02T01:20:52;98546.00;;;7.17;100.00
19526;BME280;9907;42.676;26.348;2024-03-02T01:23:22;98542.63;;;7.15;100.00
19526;BME280;9907;42.676;26.348;2024-03-02T01:25:48;98539.28;;;7.13;100.00
19526;BME280;9907;42.676;26.348;2024-03-02T01:28:15;98540.22;;;7.12;100.00
19526;BME280;9907;42.676;26.348;2024-03-02T01:30:42;98544.22;;;7.06;100.00
19526;BME280;9907;42.676;26.348;2024-03-02T01:33:07;98539.91;;;7.05;100.00
19526;BME280;9907;42.676;26.348;2024-03-02T01:35:34;98540.88;;;7.04;100.00
19526;BME280;9907;42.676;26.348;2024-03-02T01:38:00;98542.69;;;7.04;100.00
19526;BME280;9907;42.676;26.348;2024-03-02T01:40:26;98540.88;;;7.04;100.00
19526;BME280;9907;42.676;26.348;2024-03-02T01:42:53;98540.94;;;7.14;100.00
19526;BME280;9907;42.676;26.348;2024-03-02T01:45:24;98532.84;;;7.15;100.00
19526;BME280;9907;42.676;26.348;2024-03-02T01:47:51;98528.75;;;7.11;100.00
19526;BME280;9907;42.676;26.348;2024-03-02T01:50:25;98542.41;;;7.07;100.00
19526;BME280;9907;42.676;26.348;2024-03-02T01:52:50;98538.34;;;7.03;100.00
19526;BME280;9907;42.676;26.348;2024-03-02T01:55:16;98522.66;;;7.00;100.00
19526;BME280;9907;42.676;26.348;2024-03-02T01:57:41;98525.19;;;7.01;100.00
19526;BME280;9907;42.676;26.348;2024-03-02T02:00:08;98522.53;;;7.01;100.00
19526;BME280;9907;42.676;26.348;2024-03-02T02:02:35;98528.69;;;7.02;100.00
19526;BME280;9907;42.676;26.348;2024-03-02T02:05:00;98513.72;;;7.01;100.00
19526;BME280;9907;42.676;26.348;2024-03-02T02:07:25;98512.03;;;7.00;100.00
19526;BME280;9907;42.676;26.348;2024-03-02T02:09:52;98503.09;;;7.01;100.00
19526;BME280;9907;42.676;26.348;2024-03-02T02:12:17;98496.56;;;7.05;100.00
19526;BME280;9907;42.676;26.348;2024-03-02T02:14:49;98510.88;;;6.93;100.00
19526;BME280;9907;42.676;26.348;2024-03-02T02:17:15;98508.94;;;6.95;100.00
19526;BME280;9907;42.676;26.348;2024-03-02T02:19:42;98507.09;;;6.95;100.00
19526;BME280;9907;42.676;26.348;2024-03-02T02:22:08;98504.44;;;6.95;100.00
19526;BME280;9907;42.676;26.348;2024-03-02T02:24:34;98504.06;;;7.00;100.00
19526;BME280;9907;42.676;26.348;2024-03-02T02:26:59;98503.97;;;7.01;100.00
19526;BME280;9907;42.676;26.348;2024-03-02T02:29:25;98524.72;;;6.96;100.00
19526;BME280;9907;42.676;26.348;2024-03-02T02:31:50;98526.53;;;6.96;100.00
19526;BME280;9907;42.676;26.348;2024-03-02T02:34:16;98530.50;;;7.01;100.00
19526;BME280;9907;42.676;26.348;2024-03-02T02:36:42;98530.50;;;7.01;100.00
19526;BME280;9907;42.676;26.348;2024-03-02T02:39:11;98536.41;;;7.05;100.00
19526;BME280;9907;42.676;26.348;2024-03-02T02:41:39;98549.47;;;6.97;100.00
19526;BME280;9907;42.676;26.348;2024-03-02T02:44:05;98551.88;;;7.00;100.00
19526;BME280;9907;42.676;26.348;2024-03-02T02:46:30;98555.63;;;6.97;100.00
19526;BME280;9907;42.676;26.348;2024-03-02T02:48:56;98549.94;;;7.02;100.00
19526;BME280;9907;42.676;26.348;2024-03-02T02:51:21;98548.72;;;7.06;100.00
19526;BME280;9907;42.676;26.348;2024-03-02T02:53:47;98546.41;;;7.12;100.00
19526;BME280;9907;42.676;26.348;2024-03-02T02:56:13;98546.06;;;7.06;100.00
19526;BME280;9907;42.676;26.348;2024-03-02T02:58:40;98544.16;;;6.97;100.00
19526;BME280;9907;42.676;26.348;2024-03-02T03:01:06;98545.59;;;7.01;100.00
19526;BME280;9907;42.676;26.348;2024-03-02T03:03:31;98545.59;;;7.01;100.00
19526;BME280;9907;42.676;26.348;2024-03-02T03:05:56;98536.41;;;7.05;100.00
19526;BME280;9907;42.676;26.348;2024-03-02T03:08:23;98543.63;;;7.03;100.00
19526;BME280;9907;42.676;26.348;2024-03-02T03:10:49;98538.84;;;6.97;100.00
19526;BME280;9907;42.676;26.348;2024-03-02T03:13:15;98531.72;;;6.97;100.00
19526;BME280;9907;42.676;26.348;2024-03-02T03:15:41;98541.28;;;6.89;100.00
19526;BME280;9907;42.676;26.348;2024-03-02T03:18:07;98558.19;;;6.88;100.00
19526;BME280;9907;42.676;26.348;2024-03-02T03:20:33;98553.72;;;6.88;100.00
19526;BME280;9907;42.676;26.348;2024-03-02T03:22:59;98559.16;;;6.87;100.00
19526;BME280;9907;42.676;26.348;2024-03-02T03:25:25;98567.00;;;6.88;100.00
19526;BME280;9907;42.676;26.348;2024-03-02T03:27:51;98569.56;;;6.78;100.00
19526;BME280;9907;42.676;26.348;2024-03-02T03:30:19;98565.47;;;6.74;100.00
19526;BME280;9907;42.676;26.348;2024-03-02T03:32:45;98578.00;;;6.83;100.00
19526;BME280;9907;42.676;26.348;2024-03-02T03:35:11;98577.63;;;6.88;100.00
19526;BME280;9907;42.676;26.348;2024-03-02T03:37:38;98578.59;;;6.87;100.00
19526;BME280;9907;42.676;26.348;2024-03-02T03:40:04;98573.91;;;6.79;100.00
19526;BME280;9907;42.676;26.348;2024-03-02T03:42:35;98563.66;;;6.75;100.00
19526;BME280;9907;42.676;26.348;2024-03-02T03:45:02;98567.16;;;6.75;100.00
19526;BME280;9907;42.676;26.348;2024-03-02T03:47:27;98563.78;;;6.73;100.00
19526;BME280;9907;42.676;26.348;2024-03-02T03:49:53;98555.19;;;6.81;100.00
19526;BME280;9907;42.676;26.348;2024-03-02T03:52:21;98546.16;;;6.83;100.00
19526;BME280;9907;42.676;26.348;2024-03-02T03:54:59;98542.06;;;6.79;100.00
19526;BME280;9907;42.676;26.348;2024-03-02T03:57:25;98539.84;;;6.84;100.00
19526;BME280;9907;42.676;26.348;2024-03-02T03:59:53;98537.09;;;6.86;100.00
19526;BME280;9907;42.676;26.348;2024-03-02T04:02:19;98530.22;;;6.83;100.00
19526;BME280;9907;42.676;26.348;2024-03-02T04:04:44;98526.34;;;6.76;100.00
19526;BME280;9907;42.676;26.348;2024-03-02T04:07:09;98522.03;;;6.75;100.00
19526;BME280;9907;42.676;26.348;2024-03-02T04:09:36;98513.94;;;6.77;100.00
19526;BME280;9907;42.676;26.348;2024-03-02T04:12:03;98504.06;;;6.79;100.00
19526;BME280;9907;42.676;26.348;2024-03-02T04:14:30;98501.78;;;6.74;100.00
19526;BME280;9907;42.676;26.348;2024-03-02T04:16:57;98505.97;;;6.77;100.00
19526;BME280;9907;42.676;26.348;2024-03-02T04:19:24;98520.94;;;6.78;100.00
19526;BME280;9907;42.676;26.348;2024-03-02T04:21:49;98518.91;;;6.70;100.00
19526;BME280;9907;42.676;26.348;2024-03-02T04:24:15;98522.66;;;6.68;100.00
19526;BME280;9907;42.676;26.348;2024-03-02T04:26:40;98533.09;;;6.80;100.00
19526;BME280;9907;42.676;26.348;2024-03-02T04:29:08;98535.06;;;6.78;100.00
19526;BME280;9907;42.676;26.348;2024-03-02T04:31:33;98530.34;;;6.82;100.00
19526;BME280;9907;42.676;26.348;2024-03-02T04:33:58;98524.91;;;6.83;100.00
19526;BME280;9907;42.676;26.348;2024-03-02T04:36:24;98525.91;;;6.71;100.00
19526;BME280;9907;42.676;26.348;2024-03-02T04:38:49;98528.34;;;6.63;100.00
19526;BME280;9907;42.676;26.348;2024-03-02T04:41:15;98522.66;;;6.68;100.00
19526;BME280;9907;42.676;26.348;2024-03-02T04:43:42;98512.91;;;6.68;100.00
19526;BME280;9907;42.676;26.348;2024-03-02T04:46:07;98515.94;;;6.64;100.00
19526;BME280;9907;42.676;26.348;2024-03-02T04:48:33;98520.63;;;6.60;100.00
19526;BME280;9907;42.676;26.348;2024-03-02T04:50:59;98522.81;;;6.55;100.00
19526;BME280;9907;42.676;26.348;2024-03-02T04:53:24;98520.16;;;6.55;100.00
19526;BME280;9907;42.676;26.348;2024-03-02T04:55:50;98517.41;;;6.57;100.00
19526;BME280;9907;42.676;26.348;2024-03-02T04:58:34;98514.13;;;6.64;100.00
19526;BME280;9907;42.676;26.348;2024-03-02T05:01:00;98519.53;;;6.63;100.00
19526;BME280;9907;42.676;26.348;2024-03-02T05:03:25;98525.81;;;6.62;100.00
19526;BME280;9907;42.676;26.348;2024-03-02T05:05:52;98532.09;;;6.61;100.00
19526;BME280;9907;42.676;26.348;2024-03-02T05:08:18;98544.28;;;6.63;100.00
19526;BME280;9907;42.676;26.348;2024-03-02T05:11:04;98549.56;;;6.63;100.00
19526;BME280;9907;42.676;26.348;2024-03-02T05:13:49;98549.94;;;6.59;100.00
19526;BME280;9907;42.676;26.348;2024-03-02T05:16:18;98560.31;;;6.62;100.00
19526;BME280;9907;42.676;26.348;2024-03-02T05:18:43;98570.09;;;6.61;100.00
19526;BME280;9907;42.676;26.348;2024-03-02T05:21:09;98567.31;;;6.63;100.00
19526;BME280;9907;42.676;26.348;2024-03-02T05:23:34;98570.69;;;6.65;100.00
19526;BME280;9907;42.676;26.348;2024-03-02T05:26:01;98583.56;;;6.69;100.00
19526;BME280;9907;42.676;26.348;2024-03-02T05:28:26;98588.16;;;6.78;100.00
19526;BME280;9907;42.676;26.348;2024-03-02T05:30:53;98597.88;;;6.89;100.00
19526;BME280;9907;42.676;26.348;2024-03-02T05:33:21;98599.00;;;6.87;100.00
19526;BME280;9907;42.676;26.348;2024-03-02T05:35:48;98602.72;;;6.84;100.00
19526;BME280;9907;42.676;26.348;2024-03-02T05:38:15;98596.56;;;6.95;100.00
19526;BME280;9907;42.676;26.348;2024-03-02T05:40:40;98584.84;;;6.97;100.00
19526;BME280;9907;42.676;26.348;2024-03-02T05:43:07;98584.00;;;6.97;100.00
19526;BME280;9907;42.676;26.348;2024-03-02T05:45:33;98576.34;;;7.03;100.00
19526;BME280;9907;42.676;26.348;2024-03-02T05:48:01;98577.69;;;7.09;100.00
19526;BME280;9907;42.676;26.348;2024-03-02T05:50:39;98578.13;;;7.14;100.00
19526;BME280;9907;42.676;26.348;2024-03-02T05:53:04;98575.34;;;7.15;100.00
19526;BME280;9907;42.676;26.348;2024-03-02T05:55:30;98570.38;;;7.22;100.00
19526;BME280;9907;42.676;26.348;2024-03-02T05:57:56;98572.50;;;7.28;100.00
19526;BME280;9907;42.676;26.348;2024-03-02T06:00:31;98570.09;;;7.25;100.00
19526;BME280;9907;42.676;26.348;2024-03-02T06:02:58;98576.78;;;7.19;100.00
19526;BME280;9907;42.676;26.348;2024-03-02T06:05:24;98574.72;;;7.23;100.00
19526;BME280;9907;42.676;26.348;2024-03-02T06:07:50;98562.03;;;7.26;100.00
19526;BME280;9907;42.676;26.348;2024-03-02T06:10:17;98557.03;;;7.33;100.00
19526;BME280;9907;42.676;26.348;2024-03-02T06:12:51;98556.66;;;7.38;100.00
19526;BME280;9907;42.676;26.348;2024-03-02T06:15:16;98545.56;;;7.32;100.00
19526;BME280;9907;42.676;26.348;2024-03-02T06:17:43;98536.50;;;7.35;100.00
19526;BME280;9907;42.676;26.348;2024-03-02T06:20:09;98534.22;;;7.30;100.00
19526;BME280;9907;42.676;26.348;2024-03-02T06:22:47;98528.53;;;7.35;100.00
19526;BME280;9907;42.676;26.348;2024-03-02T06:25:12;98531.94;;;7.47;100.00
19526;BME280;9907;42.676;26.348;2024-03-02T06:27:38;98533.94;;;7.54;100.00
19526;BME280;9907;42.676;26.348;2024-03-02T06:30:04;98534.09;;;7.53;100.00
19526;BME280;9907;42.676;26.348;2024-03-02T06:32:30;98525.84;;;7.56;100.00
19526;BME280;9907;42.676;26.348;2024-03-02T06:34:59;98530.06;;;7.58;100.00
19526;BME280;9907;42.676;26.348;2024-03-02T06:37:30;98527.88;;;7.63;100.00
19526;BME280;9907;42.676;26.348;2024-03-02T06:39:55;98520.06;;;7.71;100.00
19526;BME280;9907;42.676;26.348;2024-03-02T06:42:24;98508.63;;;7.80;100.00
19526;BME280;9907;42.676;26.348;2024-03-02T06:44:51;98493.97;;;7.86;100.00
19526;BME280;9907;42.676;26.348;2024-03-02T06:47:17;98493.59;;;7.91;100.00
19526;BME280;9907;42.676;26.348;2024-03-02T06:49:45;98495.69;;;7.97;100.00
19526;BME280;9907;42.676;26.348;2024-03-02T06:52:10;98479.59;;;7.98;100.00
19526;BME280;9907;42.676;26.348;2024-03-02T06:54:38;98481.84;;;8.03;100.00
19526;BME280;9907;42.676;26.348;2024-03-02T06:57:07;98493.63;;;8.10;100.00
19526;BME280;9907;42.676;26.348;2024-03-02T06:59:33;98503.88;;;8.14;100.00
19526;BME280;9907;42.676;26.348;2024-03-02T07:02:11;98506.25;;;8.17;100.00
19526;BME280;9907;42.676;26.348;2024-03-02T07:04:46;98499.00;;;8.19;100.00
19526;BME280;9907;42.676;26.348;2024-03-02T07:07:12;98514.81;;;8.21;100.00
19526;BME280;9907;42.676;26.348;2024-03-02T07:09:40;98527.03;;;8.23;100.00
19526;BME280;9907;42.676;26.348;2024-03-02T07:12:07;98526.03;;;8.24;100.00
19526;BME280;9907;42.676;26.348;2024-03-02T07:14:34;98514.50;;;8.35;100.00
19526;BME280;9907;42.676;26.348;2024-03-02T07:17:19;98525.84;;;8.37;100.00
19526;BME280;9907;42.676;26.348;2024-03-02T07:19:44;98528.94;;;8.42;100.00
19526;BME280;9907;42.676;26.348;2024-03-02T07:22:10;98519.44;;;8.49;100.00
19526;BME280;9907;42.676;26.348;2024-03-02T07:24:42;98518.19;;;8.53;100.00
19526;BME280;9907;42.676;26.348;2024-03-02T07:27:12;98525.44;;;8.51;100.00
19526;BME280;9907;42.676;26.348;2024-03-02T07:29:38;98526.16;;;8.53;100.00
19526;BME280;9907;42.676;26.348;2024-03-02T07:32:04;98530.47;;;8.54;100.00
19526;BME280;9907;42.676;26.348;2024-03-02T07:34:31;98533.88;;;8.56;100.00
19526;BME280;9907;42.676;26.348;2024-03-02T07:36:57;98531.19;;;8.56;100.00
19526;BME280;9907;42.676;26.348;2024-03-02T07:39:23;98532.47;;;8.62;100.00
19526;BME280;9907;42.676;26.348;2024-03-02T07:41:49;98542.53;;;8.58;100.00
19526;BME280;9907;42.676;26.348;2024-03-02T07:44:14;98537.09;;;8.60;100.00
19526;BME280;9907;42.676;26.348;2024-03-02T07:46:43;98523.38;;;8.64;100.00
19526;BME280;9907;42.676;26.348;2024-03-02T07:49:09;98523.91;;;8.58;100.00
19526;BME280;9907;42.676;26.348;2024-03-02T07:51:35;98523.91;;;8.58;100.00
19526;BME280;9907;42.676;26.348;2024-03-02T07:54:01;98538.38;;;8.75;100.00
19526;BME280;9907;42.676;26.348;2024-03-02T07:56:27;98531.25;;;8.75;100.00
19526;BME280;9907;42.676;26.348;2024-03-02T07:58:53;98517.66;;;8.78;100.00
19526;BME280;9907;42.676;26.348;2024-03-02T08:01:19;98531.81;;;8.89;100.00
19526;BME280;9907;42.676;26.348;2024-03-02T08:03:45;98537.81;;;8.91;100.00
19526;BME280;9907;42.676;26.348;2024-03-02T08:06:14;98531.38;;;9.03;100.00
19526;BME280;9907;42.676;26.348;2024-03-02T08:08:40;98527.34;;;9.08;100.00
19526;BME280;9907;42.676;26.348;2024-03-02T08:11:06;98542.88;;;9.03;100.00
19526;BME280;9907;42.676;26.348;2024-03-02T08:13:31;98549.50;;;9.09;100.00
19526;BME280;9907;42.676;26.348;2024-03-02T08:15:57;98531.53;;;9.20;100.00
19526;BME280;9907;42.676;26.348;2024-03-02T08:18:23;98546.53;;;9.21;100.00
19526;BME280;9907;42.676;26.348;2024-03-02T08:20:48;98526.91;;;9.22;100.00
19526;BME280;9907;42.676;26.348;2024-03-02T08:23:15;98529.41;;;9.43;100.00
19526;BME280;9907;42.676;26.348;2024-03-02T08:25:41;98534.31;;;9.48;100.00
19526;BME280;9907;42.676;26.348;2024-03-02T08:28:10;98549.47;;;9.38;100.00
19526;BME280;9907;42.676;26.348;2024-03-02T08:30:39;98560.16;;;9.18;100.00
19526;BME280;9907;42.676;26.348;2024-03-02T08:33:04;98566.59;;;9.16;100.00
19526;BME280;9907;42.676;26.348;2024-03-02T08:35:31;98538.84;;;9.09;100.00
19526;BME280;9907;42.676;26.348;2024-03-02T08:38:02;98549.19;;;9.21;100.00
19526;BME280;9907;42.676;26.348;2024-03-02T08:40:28;98565.06;;;9.23;100.00
19526;BME280;9907;42.676;26.348;2024-03-02T08:42:54;98547.66;;;9.19;100.00
19526;BME280;9907;42.676;26.348;2024-03-02T08:45:21;98553.81;;;9.10;100.00
19526;BME280;9907;42.676;26.348;2024-03-02T08:47:47;98557.22;;;9.12;100.00
19526;BME280;9907;42.676;26.348;2024-03-02T08:50:15;98542.06;;;9.22;100.00
19526;BME280;9907;42.676;26.348;2024-03-02T08:52:53;98559.16;;;9.29;100.00
19526;BME280;9907;42.676;26.348;2024-03-02T08:55:21;98543.75;;;9.23;100.00
19526;BME280;9907;42.676;26.348;2024-03-02T08:57:50;98565.75;;;9.25;100.00
19526;BME280;9907;42.676;26.348;2024-03-02T09:00:32;98567.16;;;9.29;100.00
19526;BME280;9907;42.676;26.348;2024-03-02T09:03:07;98576.00;;;9.20;100.00
19526;BME280;9907;42.676;26.348;2024-03-02T09:05:55;98567.72;;;9.23;100.00
19526;BME280;9907;42.676;26.348;2024-03-02T09:08:31;98572.06;;;9.24;100.00
19526;BME280;9907;42.676;26.348;2024-03-02T09:10:57;98570.66;;;9.29;100.00
19526;BME280;9907;42.676;26.348;2024-03-02T09:13:22;98565.59;;;9.36;100.00
19526;BME280;9907;42.676;26.348;2024-03-02T09:15:48;98570.22;;;9.44;100.00
19526;BME280;9907;42.676;26.348;2024-03-02T09:18:15;98566.16;;;9.40;100.00
19526;BME280;9907;42.676;26.348;2024-03-02T09:20:42;98559.84;;;9.50;100.00
19526;BME280;9907;42.676;26.348;2024-03-02T09:23:09;98565.31;;;9.49;100.00
19526;BME280;9907;42.676;26.348;2024-03-02T09:25:36;98539.91;;;9.64;100.00
19526;BME280;9907;42.676;26.348;2024-03-02T09:28:03;98541.16;;;9.69;100.00
19526;BME280;9907;42.676;26.348;2024-03-02T09:30:30;98554.34;;;9.61;100.00
19526;BME280;9907;42.676;26.348;2024-03-02T09:32:57;98550.72;;;9.62;100.00
19526;BME280;9907;42.676;26.348;2024-03-02T09:35:24;98531.03;;;9.73;100.00
19526;BME280;9907;42.676;26.348;2024-03-02T09:37:51;98536.91;;;9.86;100.00
19526;BME280;9907;42.676;26.348;2024-03-02T09:40:17;98540.28;;;9.78;100.00
19526;BME280;9907;42.676;26.348;2024-03-02T09:42:42;98534.13;;;9.78;100.00
19526;BME280;9907;42.676;26.348;2024-03-02T09:45:09;98532.13;;;9.80;100.00
19526;BME280;9907;42.676;26.348;2024-03-02T09:47:35;98547.44;;;9.78;100.00
19526;BME280;9907;42.676;26.348;2024-03-02T09:50:00;98542.38;;;9.85;100.00
19526;BME280;9907;42.676;26.348;2024-03-02T09:52:32;98539.66;;;10.04;100.00
19526;BME280;9907;42.676;26.348;2024-03-02T09:54:58;98542.44;;;10.12;100.00
19526;BME280;9907;42.676;26.348;2024-03-02T09:57:23;98537.66;;;10.06;100.00
19526;BME280;9907;42.676;26.348;2024-03-02T09:59:51;98550.88;;;9.98;100.00
19526;BME280;9907;42.676;26.348;2024-03-02T10:02:17;98556.84;;;9.82;100.00
19526;BME280;9907;42.676;26.348;2024-03-02T10:04:50;98541.59;;;10.02;100.00
19526;BME280;9907;42.676;26.348;2024-03-02T10:07:27;98530.13;;;9.92;100.00
19526;BME280;9907;42.676;26.348;2024-03-02T10:09:57;98534.63;;;9.91;100.00
19526;BME280;9907;42.676;26.348;2024-03-02T10:12:22;98538.56;;;9.97;100.00
19526;BME280;9907;42.676;26.348;2024-03-02T10:14:48;98548.13;;;9.90;100.00
19526;BME280;9907;42.676;26.348;2024-03-02T10:17:17;98534.91;;;9.88;100.00
19526;BME280;9907;42.676;26.348;2024-03-02T10:19:43;98546.69;;;9.95;100.00
19526;BME280;9907;42.676;26.348;2024-03-02T10:22:09;98537.97;;;10.03;100.00
19526;BME280;9907;42.676;26.348;2024-03-02T10:24:41;98546.84;;;9.94;100.00
19526;BME280;9907;42.676;26.348;2024-03-02T10:27:15;98536.03;;;9.95;100.00
19526;BME280;9907;42.676;26.348;2024-03-02T10:29:41;98527.00;;;10.06;100.00
19526;BME280;9907;42.676;26.348;2024-03-02T10:32:09;98536.22;;;10.21;100.00
19526;BME280;9907;42.676;26.348;2024-03-02T10:34:43;98529.19;;;10.20;100.00
19526;BME280;9907;42.676;26.348;2024-03-02T10:37:11;98517.16;;;10.16;100.00
19526;BME280;9907;42.676;26.348;2024-03-02T10:39:40;98520.53;;;10.08;100.00
19526;BME280;9907;42.676;26.348;2024-03-02T10:42:06;98511.53;;;10.19;100.00
19526;BME280;9907;42.676;26.348;2024-03-02T10:44:32;98504.91;;;10.23;100.00
19526;BME280;9907;42.676;26.348;2024-03-02T10:47:04;98501.53;;;10.21;100.00
19526;BME280;9907;42.676;26.348;2024-03-02T10:49:32;98493.78;;;10.27;100.00
19526;BME280;9907;42.676;26.348;2024-03-02T10:51:58;98498.22;;;10.37;100.00
19526;BME280;9907;42.676;26.348;2024-03-02T10:54:24;98498.09;;;10.38;100.00
19526;BME280;9907;42.676;26.348;2024-03-02T10:57:01;98500.22;;;10.35;100.00
19526;BME280;9907;42.676;26.348;2024-03-02T10:59:36;98490.09;;;10.38;100.00
19526;BME280;9907;42.676;26.348;2024-03-02T11:02:09;98493.13;;;10.43;100.00
19526;BME280;9907;42.676;26.348;2024-03-02T11:04:47;98492.59;;;10.40;100.00
19526;BME280;9907;42.676;26.348;2024-03-02T11:07:24;98483.72;;;10.39;100.00
19526;BME280;9907;42.676;26.348;2024-03-02T11:09:59;98482.63;;;10.42;100.00
19526;BME280;9907;42.676;26.348;2024-03-02T11:12:29;98487.00;;;10.33;100.00
19526;BME280;9907;42.676;26.348;2024-03-02T11:14:58;98481.78;;;10.41;100.00
19526;BME280;9907;42.676;26.348;2024-03-02T11:17:30;98475.59;;;10.41;100.00
19526;BME280;9907;42.676;26.348;2024-03-02T11:19:57;98476.72;;;10.38;100.00
19526;BME280;9907;42.676;26.348;2024-03-02T11:22:23;98457.22;;;10.55;100.00
19526;BME280;9907;42.676;26.348;2024-03-02T11:24:52;98464.63;;;10.61;100.00
19526;BME280;9907;42.676;26.348;2024-03-02T11:33:12;98459.13;;;10.81;100.00
19526;BME280;9907;42.676;26.348;2024-03-02T11:35:41;98452.50;;;10.85;99.63
19526;BME280;9907;42.676;26.348;2024-03-02T11:38:15;98449.38;;;10.89;99.52
19526;BME280;9907;42.676;26.348;2024-03-02T11:40:42;98457.00;;;10.84;99.99
19526;BME280;9907;42.676;26.348;2024-03-02T11:43:09;98448.44;;;10.81;99.44
19526;BME280;9907;42.676;26.348;2024-03-02T11:45:58;98442.88;;;10.74;99.40
19526;BME280;9907;42.676;26.348;2024-03-02T11:48:43;98427.16;;;10.71;100.00
19526;BME280;9907;42.676;26.348;2024-03-02T11:51:12;98438.00;;;10.69;99.53
19526;BME280;9907;42.676;26.348;2024-03-02T11:53:41;98438.75;;;10.80;99.19
19526;BME280;9907;42.676;26.348;2024-03-02T11:56:09;98436.38;;;10.77;99.22
19526;BME280;9907;42.676;26.348;2024-03-02T11:58:42;98429.06;;;10.79;98.72
19526;BME280;9907;42.676;26.348;2024-03-02T12:01:27;98425.25;;;10.63;100.00
19526;BME280;9907;42.676;26.348;2024-03-02T12:03:54;98415.84;;;10.77;100.00
19526;BME280;9907;42.676;26.348;2024-03-02T12:06:23;98420.56;;;10.83;99.38
19526;BME280;9907;42.676;26.348;2024-03-02T12:08:52;98415.94;;;10.85;98.68
19526;BME280;9907;42.676;26.348;2024-03-02T12:11:21;98424.47;;;10.89;99.86
19526;BME280;9907;42.676;26.348;2024-03-02T12:13:53;98426.94;;;10.82;99.10
19526;BME280;9907;42.676;26.348;2024-03-02T12:16:24;98428.44;;;10.85;98.21
19526;BME280;9907;42.676;26.348;2024-03-02T12:18:51;98429.75;;;10.81;98.13
19526;BME280;9907;42.676;26.348;2024-03-02T12:21:20;98435.31;;;10.69;98.79
19526;BME280;9907;42.676;26.348;2024-03-02T12:23:46;98433.28;;;10.63;100.00
19526;BME280;9907;42.676;26.348;2024-03-02T12:26:11;98427.31;;;10.69;100.00
19526;BME280;9907;42.676;26.348;2024-03-02T12:28:37;98431.13;;;10.67;100.00
19526;BME280;9907;42.676;26.348;2024-03-02T12:31:03;98430.28;;;10.66;99.90
19526;BME280;9907;42.676;26.348;2024-03-02T12:33:28;98433.63;;;10.68;99.45
19526;BME280;9907;42.676;26.348;2024-03-02T12:35:57;98425.38;;;10.80;99.95
19526;BME280;9907;42.676;26.348;2024-03-02T12:38:22;98426.69;;;10.93;98.70
19526;BME280;9907;42.676;26.348;2024-03-02T12:40:51;98427.38;;;10.95;97.77
19526;BME280;9907;42.676;26.348;2024-03-02T12:43:17;98429.41;;;11.01;97.35
19526;BME280;9907;42.676;26.348;2024-03-02T12:45:43;98424.03;;;10.93;98.04
19526;BME280;9907;42.676;26.348;2024-03-02T12:48:08;98424.16;;;10.92;98.10
19526;BME280;9907;42.676;26.348;2024-03-02T12:50:34;98426.53;;;10.95;98.56
19526;BME280;9907;42.676;26.348;2024-03-02T12:52:59;98425.53;;;10.96;98.23
19526;BME280;9907;42.676;26.348;2024-03-02T12:55:25;98427.75;;;11.00;97.37
19526;BME280;9907;42.676;26.348;2024-03-02T12:57:52;98426.28;;;11.06;97.69
19526;BME280;9907;42.676;26.348;2024-03-02T13:00:18;98423.16;;;11.10;97.72
19526;BME280;9907;42.676;26.348;2024-03-02T13:02:46;98421.41;;;11.01;97.25
19526;BME280;9907;42.676;26.348;2024-03-02T13:05:22;98432.47;;;11.06;97.34
19526;BME280;9907;42.676;26.348;2024-03-02T13:07:48;98426.13;;;11.07;96.20
19526;BME280;9907;42.676;26.348;2024-03-02T13:10:13;98419.41;;;11.03;96.25